Аэропорт: Мурманск. Мурманск

ICAO: ULMM

METAR:
2020-10-24 05:30:00
ULMM 240530Z 27002MPS 5000 -SHSN SCT003 BKN015CB M01/M01 Q0989 R13/590534 NOSIG RMK QBB090 OBST OBSC QFE735
METAR:
2020-10-24 01:56:00
TAF ULMM 240156Z 2403/2503 10003MPS 3100 -SHSN SCT007 BKN011CB TEMPO 2403/2406 VRB01MPS 1000 SHSN BR BKN005 BKN011CB FM240600 04003MPS 6000 -SHSN BKN011CB TEMPO 2406/2420 36003G08MPS 3100 -SHSN BKN006 BKN011CB BECMG 2420/2421 3100 BR BKN011 TEMPO 2421/2503 02003MPS 0300 -SHSN FZFG BKN002 BKN011CB